createdAt,value
2023-01-20T00:00:19.486Z,-0.3
2023-01-20T00:01:22.239Z,-0.3
2023-01-20T00:02:24.832Z,-0.3
2023-01-20T00:03:28.158Z,-0.2
2023-01-20T00:04:31.006Z,-0.2
2023-01-20T00:05:34.146Z,-0.3
2023-01-20T00:06:37.794Z,-0.2
2023-01-20T00:07:40.959Z,-0.2
2023-01-20T00:08:44.727Z,-0.2
2023-01-20T00:09:47.793Z,-0.2
2023-01-20T00:10:50.868Z,-0.2
2023-01-20T00:11:54.308Z,-0.2
2023-01-20T00:12:57.389Z,-0.3
2023-01-20T00:14:01.135Z,-0.2
2023-01-20T00:15:04.972Z,-0.2
2023-01-20T00:16:08.617Z,-0.2
2023-01-20T00:17:11.641Z,-0.3
2023-01-20T00:18:14.422Z,-0.3
2023-01-20T00:19:18.071Z,-0.3
2023-01-20T00:20:21.204Z,-0.3
2023-01-20T00:21:23.993Z,-0.3
2023-01-20T00:22:27.468Z,-0.3
2023-01-20T00:23:30.740Z,-0.3
2023-01-20T00:24:33.778Z,-0.3
2023-01-20T00:25:36.618Z,-0.3
2023-01-20T00:26:40.038Z,-0.3
2023-01-20T00:27:42.467Z,-0.3
2023-01-20T00:28:45.749Z,-0.3
2023-01-20T00:29:49.355Z,-0.2
2023-01-20T00:31:07.761Z,-0.3
2023-01-20T00:32:10.999Z,-0.3
2023-01-20T00:33:14.378Z,-0.3
2023-01-20T00:34:17.310Z,-0.3
2023-01-20T00:35:19.542Z,-0.3
2023-01-20T00:36:22.597Z,-0.3
2023-01-20T00:37:25.679Z,-0.3
2023-01-20T00:38:29.039Z,-0.3
2023-01-20T00:39:32.606Z,-0.3
2023-01-20T00:40:35.389Z,-0.3
2023-01-20T00:41:38.223Z,-0.3
2023-01-20T00:42:41.048Z,-0.3
2023-01-20T00:43:44.075Z,-0.3
2023-01-20T00:44:46.881Z,-0.3
2023-01-20T00:45:50.338Z,-0.3
2023-01-20T00:46:54.415Z,-0.3
2023-01-20T00:47:57.604Z,-0.3
2023-01-20T00:49:00.251Z,-0.3
2023-01-20T00:50:02.911Z,-0.3
2023-01-20T00:51:05.984Z,-0.3
2023-01-20T00:52:08.724Z,-0.3
2023-01-20T00:53:12.358Z,-0.3
2023-01-20T00:54:16.016Z,-0.3
2023-01-20T00:55:19.461Z,-0.3
2023-01-20T00:56:23.183Z,-0.3
2023-01-20T00:57:26.994Z,-0.3
2023-01-20T00:58:29.463Z,-0.3
2023-01-20T00:59:32.522Z,-0.4
2023-01-20T01:00:35.495Z,-0.4
2023-01-20T01:01:39.830Z,-0.4
2023-01-20T01:02:43.666Z,-0.4
2023-01-20T01:03:47.067Z,-0.4
2023-01-20T01:04:50.485Z,-0.3
2023-01-20T01:05:54.152Z,-0.3
2023-01-20T01:06:57.916Z,-0.3
2023-01-20T01:08:00.624Z,-0.3
2023-01-20T01:09:03.828Z,-0.3
2023-01-20T01:10:07.231Z,-0.3
2023-01-20T01:11:10.078Z,-0.3
2023-01-20T01:12:12.868Z,-0.3
2023-01-20T01:13:16.642Z,-0.2
2023-01-20T01:14:19.753Z,-0.2
2023-01-20T01:15:22.903Z,-0.2
2023-01-20T01:16:26.300Z,-0.2
2023-01-20T01:17:30.238Z,-0.2
2023-01-20T01:18:33.729Z,-0.2
2023-01-20T01:19:36.202Z,-0.2
2023-01-20T01:20:39.694Z,-0.2
2023-01-20T01:21:42.141Z,-0.2
2023-01-20T01:22:45.278Z,-0.3
2023-01-20T01:23:48.561Z,-0.3
2023-01-20T01:24:52.126Z,-0.3
2023-01-20T01:25:55.119Z,-0.3
2023-01-20T01:26:58.229Z,-0.4
2023-01-20T01:28:01.299Z,-0.3
2023-01-20T01:29:04.376Z,-0.3
2023-01-20T01:30:07.126Z,-0.3
2023-01-20T01:31:10.607Z,-0.3
2023-01-20T01:32:13.695Z,-0.3
2023-01-20T01:33:17.206Z,-0.3
2023-01-20T01:34:20.623Z,-0.3
2023-01-20T01:35:23.732Z,-0.3
2023-01-20T01:36:25.915Z,-0.3
2023-01-20T01:37:29.343Z,-0.3
2023-01-20T01:38:32.101Z,-0.3
2023-01-20T01:39:35.757Z,-0.3
2023-01-20T01:40:39.459Z,-0.3
2023-01-20T01:41:42.451Z,-0.3
2023-01-20T01:42:45.439Z,-0.3
2023-01-20T01:43:48.704Z,-0.4
2023-01-20T01:44:51.177Z,-0.4
2023-01-20T01:45:54.865Z,-0.3
2023-01-20T01:46:58.051Z,-0.4
2023-01-20T01:48:00.668Z,-0.3
2023-01-20T01:49:03.878Z,-0.3
2023-01-20T01:50:07.965Z,-0.3
2023-01-20T01:51:10.446Z,-0.3
2023-01-20T01:52:13.164Z,-0.3
2023-01-20T01:53:16.389Z,-0.3
2023-01-20T01:54:19.523Z,-0.3
2023-01-20T01:55:22.712Z,-0.4
2023-01-20T01:56:26.152Z,-0.3
2023-01-20T01:57:28.924Z,-0.3
2023-01-20T01:58:31.462Z,-0.3
2023-01-20T01:59:34.200Z,-0.4
2023-01-20T02:00:36.826Z,-0.4
2023-01-20T02:01:39.718Z,-0.4
2023-01-20T02:02:43.577Z,-0.4
2023-01-20T02:03:47.338Z,-0.4
2023-01-20T02:04:52.639Z,-0.4
2023-01-20T02:05:55.881Z,-0.4
2023-01-20T02:06:59.003Z,-0.4
2023-01-20T02:08:01.534Z,-0.4
2023-01-20T02:09:04.598Z,-0.4
2023-01-20T02:10:07.895Z,-0.4
2023-01-20T02:11:10.690Z,-0.4
2023-01-20T02:12:14.440Z,-0.5
2023-01-20T02:13:18.236Z,-0.5
2023-01-20T02:14:21.393Z,-0.5
2023-01-20T02:15:24.099Z,-0.5
2023-01-20T02:16:28.111Z,-0.5
2023-01-20T02:17:30.917Z,-0.5
2023-01-20T02:18:33.974Z,-0.5
2023-01-20T02:19:36.686Z,-0.5
2023-01-20T02:20:40.168Z,-0.5
2023-01-20T02:21:43.911Z,-0.6
2023-01-20T02:22:47.573Z,-0.5
2023-01-20T02:23:49.864Z,-0.5
2023-01-20T02:24:52.047Z,-0.5
2023-01-20T02:25:54.927Z,-0.5
2023-01-20T02:26:57.798Z,-0.5
2023-01-20T02:28:01.146Z,-0.5
2023-01-20T02:29:03.926Z,-0.5
2023-01-20T02:30:06.786Z,-0.5
2023-01-20T02:31:10.510Z,-0.4
2023-01-20T02:32:13.037Z,-0.5
2023-01-20T02:33:16.088Z,-0.5
2023-01-20T02:34:19.425Z,-0.5
2023-01-20T02:35:22.592Z,-0.5
2023-01-20T02:36:26.385Z,-0.5
2023-01-20T02:37:30.479Z,-0.5
2023-01-20T02:38:33.231Z,-0.5
2023-01-20T02:39:36.889Z,-0.5
2023-01-20T02:40:40.321Z,-0.5
2023-01-20T02:41:43.684Z,-0.6
2023-01-20T02:42:47.079Z,-0.6
2023-01-20T02:43:49.788Z,-0.6
2023-01-20T02:44:53.492Z,-0.6
2023-01-20T02:45:57.280Z,-0.6
2023-01-20T02:47:00.570Z,-0.6
2023-01-20T02:48:03.580Z,-0.6
2023-01-20T02:49:06.603Z,-0.6
2023-01-20T02:50:09.594Z,-0.5
2023-01-20T02:51:12.656Z,-0.5
2023-01-20T02:52:16.115Z,-0.6
2023-01-20T02:53:19.542Z,-0.6
2023-01-20T02:54:22.305Z,-0.6
2023-01-20T02:55:25.139Z,-0.5
2023-01-20T02:56:28.575Z,-0.5
2023-01-20T02:57:31.635Z,-0.5
2023-01-20T02:58:34.553Z,-0.5
2023-01-20T02:59:37.353Z,-0.5
2023-01-20T03:00:40.831Z,-0.5
2023-01-20T03:01:44.646Z,-0.4
2023-01-20T03:02:48.861Z,-0.4
2023-01-20T03:03:52.358Z,-0.5
2023-01-20T03:04:56.117Z,-0.5
2023-01-20T03:05:58.924Z,-0.4
2023-01-20T03:07:02.398Z,-0.4
2023-01-20T03:08:06.256Z,-0.4
2023-01-20T03:09:10.100Z,-0.4
2023-01-20T03:10:13.200Z,-0.4
2023-01-20T03:11:15.994Z,-0.4
2023-01-20T03:12:19.385Z,-0.4
2023-01-20T03:13:23.071Z,-0.4
2023-01-20T03:14:26.399Z,-0.4
2023-01-20T03:15:29.113Z,-0.3
2023-01-20T03:16:32.266Z,-0.4
2023-01-20T03:17:35.371Z,-0.4
2023-01-20T03:18:37.825Z,-0.4
2023-01-20T03:19:41.547Z,-0.4
2023-01-20T03:20:44.714Z,-0.4
2023-01-20T03:21:48.088Z,-0.4
2023-01-20T03:22:51.776Z,-0.4
2023-01-20T03:23:55.793Z,-0.4
2023-01-20T03:24:59.281Z,-0.5
2023-01-20T03:26:02.683Z,-0.5
2023-01-20T03:27:06.180Z,-0.5
2023-01-20T03:28:09.070Z,-0.4
2023-01-20T03:29:12.290Z,-0.4
2023-01-20T03:30:15.764Z,-0.4
2023-01-20T03:31:19.615Z,-0.4
2023-01-20T03:32:23.315Z,-0.4
2023-01-20T03:33:26.011Z,-0.5
2023-01-20T03:34:29.108Z,-0.5
2023-01-20T03:35:32.622Z,-0.5
2023-01-20T03:36:36.095Z,-0.5
2023-01-20T03:37:39.433Z,-0.5
2023-01-20T03:38:42.444Z,-0.5
2023-01-20T03:39:46.202Z,-0.5
2023-01-20T03:40:49.393Z,-0.4
2023-01-20T03:41:52.542Z,-0.4
2023-01-20T03:42:55.987Z,-0.4
2023-01-20T03:43:59.387Z,-0.4
2023-01-20T03:45:02.537Z,-0.4
2023-01-20T03:46:06.161Z,-0.4
2023-01-20T03:47:09.947Z,-0.5
2023-01-20T03:48:13.489Z,-0.5
2023-01-20T03:49:15.719Z,-0.5
2023-01-20T03:50:18.784Z,-0.5
2023-01-20T03:51:21.740Z,-0.5
2023-01-20T03:52:50.206Z,-0.5
2023-01-20T03:53:53.746Z,-0.5
2023-01-20T03:54:57.901Z,-0.5
2023-01-20T03:56:01.331Z,-0.5
2023-01-20T03:57:05.139Z,-0.4
2023-01-20T03:58:07.969Z,-0.4
2023-01-20T03:59:11.410Z,-0.5
2023-01-20T04:00:14.133Z,-0.5
2023-01-20T04:01:21.337Z,-0.4
2023-01-20T04:02:25.890Z,-0.4
2023-01-20T04:03:29.091Z,-0.4
2023-01-20T04:04:32.043Z,-0.3
2023-01-20T04:05:35.113Z,-0.3
2023-01-20T04:06:38.405Z,-0.3
2023-01-20T04:07:42.136Z,-0.3
2023-01-20T04:08:44.867Z,-0.3
2023-01-20T04:09:48.045Z,-0.3
2023-01-20T04:10:51.495Z,-0.3
2023-01-20T04:11:55.337Z,-0.3
2023-01-20T04:12:59.074Z,-0.3
2023-01-20T04:14:02.089Z,-0.3
2023-01-20T04:15:04.983Z,-0.3
2023-01-20T04:16:08.881Z,-0.3
2023-01-20T04:17:11.205Z,-0.2
2023-01-20T04:18:14.910Z,-0.3
2023-01-20T04:19:17.620Z,-0.3
2023-01-20T04:20:21.001Z,-0.3
2023-01-20T04:21:23.827Z,-0.2
2023-01-20T04:22:26.873Z,-0.3
2023-01-20T04:23:29.351Z,-0.3
2023-01-20T04:24:31.889Z,-0.3
2023-01-20T04:25:35.549Z,-0.2
2023-01-20T04:26:39.434Z,-0.2
2023-01-20T04:27:43.503Z,-0.2
2023-01-20T04:28:47.010Z,-0.2
2023-01-20T04:29:50.776Z,-0.2
2023-01-20T04:30:55.031Z,-0.2
2023-01-20T04:31:58.489Z,-0.2
2023-01-20T04:33:01.324Z,-0.2
2023-01-20T04:34:04.402Z,-0.1
2023-01-20T04:35:07.846Z,-0.1
2023-01-20T04:36:10.578Z,-0.1
2023-01-20T04:37:13.646Z,-0.1
2023-01-20T04:38:16.789Z,-0.1
2023-01-20T04:39:20.173Z,-0.1
2023-01-20T04:40:23.595Z,-0.1
2023-01-20T04:41:26.427Z,-0.1
2023-01-20T04:42:30.240Z,-0.1
2023-01-20T04:43:33.755Z,-0.1
2023-01-20T04:44:37.139Z,0
2023-01-20T04:45:40.921Z,0
2023-01-20T04:46:44.415Z,0
2023-01-20T04:47:47.255Z,0
2023-01-20T04:48:50.686Z,0
2023-01-20T04:49:53.879Z,0
2023-01-20T04:50:56.697Z,0
2023-01-20T04:51:59.447Z,-0.1
2023-01-20T04:53:02.936Z,0
2023-01-20T04:54:06.460Z,-0.1
2023-01-20T04:55:09.832Z,-0.1
2023-01-20T04:56:12.995Z,-0.1
2023-01-20T04:57:15.828Z,0
2023-01-20T04:58:19.346Z,0
2023-01-20T04:59:23.095Z,0
2023-01-20T05:00:26.607Z,0
2023-01-20T05:01:30.345Z,0
2023-01-20T05:02:34.161Z,0
2023-01-20T05:03:37.394Z,0
2023-01-20T05:04:40.573Z,0
2023-01-20T05:05:43.678Z,0.1
2023-01-20T05:06:47.046Z,0
2023-01-20T05:07:50.137Z,0
2023-01-20T05:08:53.535Z,0
2023-01-20T05:09:56.519Z,0.1
2023-01-20T05:10:59.308Z,0
2023-01-20T05:12:01.791Z,0
2023-01-20T05:13:05.245Z,0
2023-01-20T05:14:08.384Z,-0.1
2023-01-20T05:15:12.189Z,-0.1
2023-01-20T05:16:16.896Z,-0.1
2023-01-20T05:17:20.411Z,-0.1
2023-01-20T05:18:23.249Z,-0.1
2023-01-20T05:19:26.700Z,-0.1
2023-01-20T05:20:29.983Z,-0.1
2023-01-20T05:21:33.611Z,-0.1
2023-01-20T05:22:36.810Z,-0.1
2023-01-20T05:23:40.888Z,-0.1
2023-01-20T05:24:43.920Z,-0.1
2023-01-20T05:25:47.008Z,-0.1
2023-01-20T05:26:50.711Z,-0.2
2023-01-20T05:27:53.886Z,-0.2
2023-01-20T05:28:57.236Z,-0.2
2023-01-20T05:30:00.662Z,-0.2
2023-01-20T05:31:05.026Z,-0.1
2023-01-20T05:32:08.669Z,-0.1
2023-01-20T05:33:12.091Z,-0.1
2023-01-20T05:34:14.516Z,-0.1
2023-01-20T05:35:18.930Z,-0.2
2023-01-20T05:36:22.132Z,-0.1
2023-01-20T05:37:25.439Z,-0.1
2023-01-20T05:38:28.549Z,-0.1
2023-01-20T05:39:31.533Z,-0.1
2023-01-20T05:40:34.293Z,-0.1
2023-01-20T05:41:37.584Z,-0.1
2023-01-20T05:42:40.700Z,0
2023-01-20T05:43:44.141Z,-0.1
2023-01-20T05:44:46.850Z,0
2023-01-20T05:45:50.289Z,0
2023-01-20T05:46:54.348Z,0
2023-01-20T05:47:57.369Z,0
2023-01-20T05:49:00.411Z,0.1
2023-01-20T05:50:03.406Z,0.1
2023-01-20T05:51:06.404Z,0.1
2023-01-20T05:52:08.906Z,0
2023-01-20T05:53:11.428Z,0
2023-01-20T05:54:14.227Z,0.1
2023-01-20T05:55:18.446Z,0.1
2023-01-20T05:56:21.539Z,0.1
2023-01-20T05:57:24.826Z,0.1
2023-01-20T05:58:27.691Z,0.1
2023-01-20T05:59:31.604Z,0.1
2023-01-20T06:00:34.427Z,0.1
2023-01-20T06:01:38.566Z,0.2
2023-01-20T06:02:42.654Z,0.2
2023-01-20T06:03:46.677Z,0.2
2023-01-20T06:04:50.159Z,0.2
2023-01-20T06:05:53.014Z,0.2
2023-01-20T06:06:55.997Z,0.2
2023-01-20T06:07:59.143Z,0.2
2023-01-20T06:09:02.225Z,0.1
2023-01-20T06:10:06.027Z,0.1
2023-01-20T06:11:09.447Z,0.1
2023-01-20T06:12:12.556Z,0.2
2023-01-20T06:13:15.597Z,0.1
2023-01-20T06:14:18.611Z,0.1
2023-01-20T06:15:21.400Z,0.1
2023-01-20T06:16:24.740Z,0.1
2023-01-20T06:17:27.930Z,0.1
2023-01-20T06:18:31.716Z,0.1
2023-01-20T06:19:35.093Z,0.1
2023-01-20T06:20:38.625Z,0.1
2023-01-20T06:21:41.448Z,0.1
2023-01-20T06:22:44.655Z,0.1
2023-01-20T06:23:48.332Z,0.2
2023-01-20T06:24:51.625Z,0.2
2023-01-20T06:25:53.836Z,0.2
2023-01-20T06:26:57.111Z,0.2
2023-01-20T06:28:00.306Z,0.3
2023-01-20T06:29:03.337Z,0.3
2023-01-20T06:30:06.991Z,0.3
2023-01-20T06:31:10.824Z,0.3
2023-01-20T06:32:14.324Z,0.3
2023-01-20T06:33:17.800Z,0.4
2023-01-20T06:34:21.267Z,0.3
2023-01-20T06:35:24.029Z,0.2
2023-01-20T06:36:26.492Z,0.2
2023-01-20T06:37:29.912Z,0.2
2023-01-20T06:38:33.022Z,0.3
2023-01-20T06:39:36.096Z,0.3
2023-01-20T06:40:38.878Z,0.4
2023-01-20T06:41:41.338Z,0.3
2023-01-20T06:42:44.249Z,0.4
2023-01-20T06:43:47.695Z,0.3
2023-01-20T06:44:51.101Z,0.3
2023-01-20T06:45:54.109Z,0.3
2023-01-20T06:46:57.846Z,0.2
2023-01-20T06:48:01.055Z,0.3
2023-01-20T06:49:04.621Z,0.2
2023-01-20T06:50:07.815Z,0.2
2023-01-20T06:51:10.858Z,0.2
2023-01-20T06:52:13.310Z,0.2
2023-01-20T06:53:16.762Z,0.2
2023-01-20T06:54:20.038Z,0.2
2023-01-20T06:55:23.378Z,0.1
2023-01-20T06:56:26.782Z,0.2
2023-01-20T06:57:29.862Z,0.1
2023-01-20T06:58:32.680Z,0.1
2023-01-20T06:59:36.441Z,0.1
2023-01-20T07:00:39.062Z,0.2
2023-01-20T07:01:42.809Z,0.2
2023-01-20T07:02:46.503Z,0.2
2023-01-20T07:03:50.349Z,0.1
2023-01-20T07:04:54.133Z,0.1
2023-01-20T07:05:58.175Z,0.1
2023-01-20T07:07:01.664Z,0.1
2023-01-20T07:08:05.193Z,0.2
2023-01-20T07:09:07.928Z,0.2
2023-01-20T07:10:11.069Z,0.2
2023-01-20T07:11:13.953Z,0.3
2023-01-20T07:12:17.395Z,0.3
2023-01-20T07:13:20.796Z,0.3
2023-01-20T07:14:24.419Z,0.2
2023-01-20T07:15:27.126Z,0.2
2023-01-20T07:16:30.079Z,0.2
2023-01-20T07:17:34.160Z,0.3
2023-01-20T07:18:36.979Z,0.2
2023-01-20T07:19:39.989Z,0.3
2023-01-20T07:20:43.718Z,0.3
2023-01-20T07:21:46.549Z,0.3
2023-01-20T07:22:49.298Z,0.3
2023-01-20T07:23:52.550Z,0.3
2023-01-20T07:24:56.271Z,0.3
2023-01-20T07:25:59.264Z,0.2
2023-01-20T07:27:02.631Z,0.2
2023-01-20T07:28:05.368Z,0.2
2023-01-20T07:29:08.741Z,0.2
2023-01-20T07:30:12.103Z,0.2
2023-01-20T07:31:15.863Z,0.2
2023-01-20T07:32:19.048Z,0.2
2023-01-20T07:33:22.670Z,0.2
2023-01-20T07:34:25.882Z,0.1
2023-01-20T07:35:29.177Z,0.1
2023-01-20T07:36:32.689Z,0.1
2023-01-20T07:37:36.210Z,0.1
2023-01-20T07:38:39.692Z,0.1
2023-01-20T07:39:43.063Z,0.1
2023-01-20T07:40:46.342Z,0.1
2023-01-20T07:41:50.065Z,0.1
2023-01-20T07:42:52.252Z,0.2
2023-01-20T07:43:55.346Z,0.2
2023-01-20T07:44:58.483Z,0.2
2023-01-20T07:46:02.541Z,0.2
2023-01-20T07:47:05.702Z,0.2
2023-01-20T07:48:09.166Z,0.2
2023-01-20T07:49:14.433Z,0.2
2023-01-20T07:50:18.205Z,0.2
2023-01-20T07:51:21.916Z,0.2
2023-01-20T07:52:25.357Z,0.2
2023-01-20T07:53:29.111Z,0.2
2023-01-20T07:54:32.500Z,0.2
2023-01-20T07:55:35.520Z,0.2
2023-01-20T07:56:38.426Z,0.3
2023-01-20T07:57:42.033Z,0.3
2023-01-20T07:58:45.462Z,0.3
2023-01-20T07:59:48.826Z,0.3
2023-01-20T08:00:52.973Z,0.3
2023-01-20T08:01:57.251Z,0.4
2023-01-20T08:03:00.309Z,0.4
2023-01-20T08:04:03.824Z,0.4
2023-01-20T08:05:07.804Z,0.3
2023-01-20T08:06:11.529Z,0.3
2023-01-20T08:07:14.556Z,0.3
2023-01-20T08:08:18.283Z,0.3
2023-01-20T08:09:22.081Z,0.3
2023-01-20T08:10:26.448Z,0.3
2023-01-20T08:11:29.603Z,0.3
2023-01-20T08:12:32.702Z,0.3
2023-01-20T08:13:36.069Z,0.3
2023-01-20T08:14:39.956Z,0.3
2023-01-20T08:15:42.754Z,0.3
2023-01-20T08:16:46.376Z,0.2
2023-01-20T08:17:49.671Z,0.2
2023-01-20T08:18:53.328Z,0.2
2023-01-20T08:19:57.128Z,0.2
2023-01-20T08:21:00.233Z,0.2
2023-01-20T08:22:03.360Z,0.2
2023-01-20T08:23:06.119Z,0.2
2023-01-20T08:24:09.916Z,0.1
2023-01-20T08:25:14.271Z,0.2
2023-01-20T08:26:18.091Z,0.2
2023-01-20T08:27:21.512Z,0.2
2023-01-20T08:28:24.506Z,0.3
2023-01-20T08:29:27.109Z,0.3
2023-01-20T08:30:30.439Z,0.3
2023-01-20T08:31:34.620Z,0.4
2023-01-20T08:32:38.209Z,0.4
2023-01-20T08:33:41.541Z,0.4
2023-01-20T08:34:45.053Z,0.5
2023-01-20T08:35:48.183Z,0.5
2023-01-20T08:36:51.586Z,0.5
2023-01-20T08:37:55.280Z,0.6
2023-01-20T08:38:58.651Z,0.6
2023-01-20T08:40:02.078Z,0.6
2023-01-20T08:41:05.977Z,0.6
2023-01-20T08:42:09.371Z,0.6
2023-01-20T08:43:13.151Z,0.6
2023-01-20T08:44:16.546Z,0.6
2023-01-20T08:45:19.385Z,0.6
2023-01-20T08:46:24.165Z,0.6
2023-01-20T08:47:27.525Z,0.7
2023-01-20T08:48:31.340Z,0.7
2023-01-20T08:49:34.858Z,0.7
2023-01-20T08:50:38.271Z,0.7
2023-01-20T08:51:41.151Z,0.8
2023-01-20T08:52:44.776Z,0.8
2023-01-20T08:53:48.431Z,0.6
2023-01-20T08:54:51.890Z,0.6
2023-01-20T08:55:55.695Z,0.5
2023-01-20T08:56:58.994Z,0.6
2023-01-20T08:58:02.475Z,0.6
2023-01-20T08:59:06.306Z,0.6
2023-01-20T09:00:09.972Z,0.6
2023-01-20T09:01:13.605Z,0.6
2023-01-20T09:02:17.378Z,0.6
2023-01-20T09:03:20.540Z,0.6
2023-01-20T09:04:24.000Z,0.7
2023-01-20T09:05:27.115Z,0.6
2023-01-20T09:06:30.828Z,0.6
2023-01-20T09:07:34.107Z,0.6
2023-01-20T09:08:37.439Z,0.6
2023-01-20T09:09:40.699Z,0.6
2023-01-20T09:10:44.607Z,0.6
2023-01-20T09:11:48.529Z,0.6
2023-01-20T09:12:51.717Z,0.5
2023-01-20T09:13:54.850Z,0.5
2023-01-20T09:14:58.131Z,0.4
2023-01-20T09:16:02.236Z,0.4
2023-01-20T09:17:05.685Z,0.5
2023-01-20T09:18:09.059Z,0.5
2023-01-20T09:19:12.280Z,0.4
2023-01-20T09:20:15.679Z,0.4
2023-01-20T09:21:19.194Z,0.4
2023-01-20T09:22:22.557Z,0.5
2023-01-20T09:23:25.389Z,0.5
2023-01-20T09:24:29.081Z,0.5
2023-01-20T09:25:32.128Z,0.5
2023-01-20T09:26:37.996Z,0.5
2023-01-20T09:27:42.237Z,0.4
2023-01-20T09:28:45.732Z,0.4
2023-01-20T09:29:49.538Z,0.4
2023-01-20T09:30:53.351Z,0.4
2023-01-20T09:31:56.959Z,0.4
2023-01-20T09:33:00.153Z,0.4
2023-01-20T09:34:04.264Z,0.4
2023-01-20T09:35:07.726Z,0.4
2023-01-20T09:36:11.588Z,0.5
2023-01-20T09:37:14.989Z,0.5
2023-01-20T09:38:18.624Z,0.5
2023-01-20T09:39:22.415Z,0.6
2023-01-20T09:40:26.083Z,0.6
2023-01-20T09:41:29.882Z,0.7
2023-01-20T09:42:33.251Z,0.7
2023-01-20T09:43:37.078Z,0.7
2023-01-20T09:44:40.661Z,0.7
2023-01-20T09:45:44.315Z,0.7
2023-01-20T09:46:47.709Z,0.7
2023-01-20T09:47:50.842Z,0.8
2023-01-20T09:48:54.265Z,0.8
2023-01-20T09:49:58.060Z,0.8
2023-01-20T09:51:01.451Z,0.8
2023-01-20T09:52:04.249Z,0.8
2023-01-20T09:53:07.561Z,0.8
2023-01-20T09:54:10.904Z,0.8
2023-01-20T09:55:13.348Z,0.7
2023-01-20T09:56:16.428Z,0.7
2023-01-20T09:57:19.916Z,0.7
2023-01-20T09:58:23.534Z,0.7
2023-01-20T09:59:27.339Z,0.6
2023-01-20T10:00:31.137Z,0.6
2023-01-20T10:01:34.759Z,0.6
2023-01-20T10:02:38.113Z,0.6
2023-01-20T10:03:41.195Z,0.5
2023-01-20T10:04:44.176Z,0.6
2023-01-20T10:05:47.260Z,0.6
2023-01-20T10:06:50.679Z,0.6
2023-01-20T10:07:53.868Z,0.6
2023-01-20T10:09:08.328Z,0.6
2023-01-20T10:10:12.367Z,0.5
2023-01-20T10:11:15.957Z,0.5
2023-01-20T10:12:18.815Z,0.5
2023-01-20T10:13:21.838Z,0.5
2023-01-20T10:14:25.450Z,0.5
2023-01-20T10:15:29.288Z,0.6
2023-01-20T10:16:33.492Z,0.6
2023-01-20T10:17:36.904Z,0.5
2023-01-20T10:18:40.356Z,0.4
2023-01-20T10:19:44.087Z,0.4
2023-01-20T10:20:47.109Z,0.4
2023-01-20T10:21:50.884Z,0.4
2023-01-20T10:22:54.530Z,0.4
2023-01-20T10:23:57.063Z,0.4
2023-01-20T10:25:00.724Z,0.5
2023-01-20T10:26:03.813Z,0.5
2023-01-20T10:27:06.956Z,0.5
2023-01-20T10:28:10.084Z,0.4
2023-01-20T10:29:13.762Z,0.4
2023-01-20T10:30:18.844Z,0.4
2023-01-20T10:31:23.163Z,0.3
2023-01-20T10:32:27.023Z,0.3
2023-01-20T10:33:30.467Z,0.4
2023-01-20T10:34:33.328Z,0.5
2023-01-20T10:35:37.386Z,0.5
2023-01-20T10:36:40.468Z,0.6
2023-01-20T10:37:43.810Z,0.6
2023-01-20T10:38:46.375Z,0.6
2023-01-20T10:39:49.077Z,0.6
2023-01-20T10:40:52.837Z,0.6
2023-01-20T10:41:56.386Z,0.7
2023-01-20T10:42:58.803Z,0.7
2023-01-20T10:44:01.920Z,0.7
2023-01-20T10:45:05.377Z,0.6
2023-01-20T10:46:13.006Z,0.5
2023-01-20T10:47:16.644Z,0.4
2023-01-20T10:48:20.473Z,0.4
2023-01-20T10:49:23.579Z,0.4
2023-01-20T10:50:27.214Z,0.4
2023-01-20T10:51:30.052Z,0.4
2023-01-20T10:52:33.816Z,0.5
2023-01-20T10:53:36.956Z,0.4
2023-01-20T10:54:40.227Z,0.5
2023-01-20T10:55:43.317Z,0.4
2023-01-20T10:56:46.527Z,0.5
2023-01-20T10:57:49.883Z,0.4
2023-01-20T10:58:53.234Z,0.4
2023-01-20T10:59:57.244Z,0.3
2023-01-20T11:01:01.089Z,0.3
2023-01-20T11:02:14.254Z,0.3
2023-01-20T11:03:19.106Z,0.3
2023-01-20T11:04:22.760Z,0.3
2023-01-20T11:05:26.300Z,0.3
2023-01-20T11:06:29.124Z,0.3
2023-01-20T11:07:32.894Z,0.4
2023-01-20T11:08:36.149Z,0.4
2023-01-20T11:09:39.149Z,0.4
2023-01-20T11:10:42.786Z,0.4
2023-01-20T11:11:45.935Z,0.5
2023-01-20T11:12:48.976Z,0.5
2023-01-20T11:13:52.091Z,0.6
2023-01-20T11:14:55.254Z,0.6
2023-01-20T11:15:58.873Z,0.6
2023-01-20T11:17:01.791Z,0.7
2023-01-20T11:18:05.123Z,0.8
2023-01-20T11:19:09.116Z,0.8
2023-01-20T11:20:12.975Z,0.7
2023-01-20T11:21:16.852Z,0.7
2023-01-20T11:22:19.933Z,0.7
2023-01-20T11:23:23.677Z,0.8
2023-01-20T11:24:27.445Z,0.8
2023-01-20T11:25:30.562Z,0.8
2023-01-20T11:26:33.954Z,0.8
2023-01-20T11:27:36.738Z,0.8
2023-01-20T11:28:40.755Z,0.9
2023-01-20T11:29:44.179Z,0.9
2023-01-20T11:30:48.089Z,0.9
2023-01-20T11:31:51.903Z,0.9
2023-01-20T11:32:54.895Z,0.9
2023-01-20T11:33:57.975Z,0.9
2023-01-20T11:35:01.175Z,0.9
2023-01-20T11:36:04.691Z,0.9
2023-01-20T11:37:07.555Z,0.9
2023-01-20T11:38:10.896Z,0.9
2023-01-20T11:39:14.166Z,1
2023-01-20T11:40:19.212Z,1
2023-01-20T11:41:22.313Z,0.9
2023-01-20T11:42:25.734Z,0.9
2023-01-20T11:43:28.442Z,0.9
2023-01-20T11:44:31.782Z,0.9
2023-01-20T11:45:35.397Z,0.9
2023-01-20T11:46:39.256Z,0.9
2023-01-20T11:47:42.597Z,1
2023-01-20T11:48:45.457Z,1
2023-01-20T11:49:48.435Z,1
2023-01-20T11:50:52.215Z,1
2023-01-20T11:51:55.760Z,1.1
2023-01-20T11:52:59.613Z,1.1
2023-01-20T11:54:02.738Z,1
2023-01-20T11:55:05.744Z,1
2023-01-20T11:56:09.245Z,0.9
2023-01-20T11:57:11.777Z,0.9
2023-01-20T11:58:14.939Z,0.9
2023-01-20T11:59:18.202Z,0.8
2023-01-20T12:00:21.012Z,0.7
2023-01-20T12:01:24.758Z,0.7
2023-01-20T12:02:28.404Z,0.7
2023-01-20T12:03:31.270Z,0.6
2023-01-20T12:04:34.984Z,0.6
2023-01-20T12:05:38.435Z,0.7
2023-01-20T12:06:42.604Z,0.7
2023-01-20T12:07:46.051Z,0.7
2023-01-20T12:08:49.442Z,0.6
2023-01-20T12:09:52.622Z,0.6
2023-01-20T12:10:56.274Z,0.6
2023-01-20T12:11:59.080Z,0.6
2023-01-20T12:13:01.786Z,0.6
2023-01-20T12:14:05.128Z,0.6
2023-01-20T12:15:08.613Z,0.6
2023-01-20T12:16:11.581Z,0.7
2023-01-20T12:17:14.316Z,0.7
2023-01-20T12:18:17.244Z,0.7
2023-01-20T12:19:20.994Z,0.8
2023-01-20T12:20:24.335Z,0.8
2023-01-20T12:21:28.100Z,0.8
2023-01-20T12:22:31.589Z,0.8
2023-01-20T12:23:35.378Z,0.7
2023-01-20T12:24:44.545Z,0.6
2023-01-20T12:25:48.993Z,0.5
2023-01-20T12:26:52.684Z,0.5
2023-01-20T12:27:55.483Z,0.6
2023-01-20T12:28:57.958Z,0.6
2023-01-20T12:30:01.689Z,0.7
2023-01-20T12:31:05.342Z,0.7
2023-01-20T12:32:09.704Z,0.8
2023-01-20T12:33:13.455Z,0.8
2023-01-20T12:34:16.211Z,0.8
2023-01-20T12:35:19.302Z,0.8
2023-01-20T12:36:22.841Z,0.8
2023-01-20T12:37:25.915Z,0.8
2023-01-20T12:38:29.110Z,0.9
2023-01-20T12:39:32.972Z,0.9
2023-01-20T12:40:36.636Z,0.9
2023-01-20T12:41:39.624Z,0.9
2023-01-20T12:42:43.361Z,0.9
2023-01-20T12:43:46.767Z,0.9
2023-01-20T12:44:49.364Z,0.8
2023-01-20T12:45:53.143Z,0.8
2023-01-20T12:46:56.595Z,0.9
2023-01-20T12:48:00.224Z,0.9
2023-01-20T12:49:02.927Z,0.9
2023-01-20T12:50:05.772Z,0.9
2023-01-20T12:51:08.345Z,0.9
2023-01-20T12:52:12.683Z,1
2023-01-20T12:53:18.509Z,0.9
2023-01-20T12:54:21.997Z,0.9
2023-01-20T12:55:26.164Z,0.8
2023-01-20T12:56:29.266Z,0.8
2023-01-20T12:57:32.451Z,0.8
2023-01-20T12:58:36.188Z,0.8
2023-01-20T12:59:39.640Z,0.7
2023-01-20T13:00:43.035Z,0.8
2023-01-20T13:01:46.299Z,0.8
2023-01-20T13:02:50.651Z,0.7
2023-01-20T13:03:54.377Z,0.6
2023-01-20T13:04:57.369Z,0.7
2023-01-20T13:06:00.715Z,0.7
2023-01-20T13:07:04.434Z,0.7
2023-01-20T13:08:07.544Z,0.7
2023-01-20T13:09:10.925Z,0.7
2023-01-20T13:10:16.467Z,0.8
2023-01-20T13:11:21.000Z,0.8
2023-01-20T13:12:24.014Z,0.9
2023-01-20T13:13:26.465Z,0.9
2023-01-20T13:14:29.168Z,0.9
2023-01-20T13:15:32.631Z,0.9
2023-01-20T13:16:36.003Z,0.9
2023-01-20T13:17:39.211Z,0.9
2023-01-20T13:18:42.306Z,0.9
2023-01-20T13:19:45.564Z,0.9
2023-01-20T13:20:48.790Z,0.9
2023-01-20T13:22:09.519Z,1
2023-01-20T13:23:12.582Z,1
2023-01-20T13:24:15.697Z,0.9
2023-01-20T13:25:19.726Z,0.9
2023-01-20T13:26:22.660Z,0.9
2023-01-20T13:27:25.844Z,0.8
2023-01-20T13:28:28.976Z,0.8
2023-01-20T13:29:32.348Z,0.8
2023-01-20T13:30:35.675Z,0.9
2023-01-20T13:31:40.679Z,0.9
2023-01-20T13:32:44.613Z,0.9
2023-01-20T13:33:48.340Z,0.9
2023-01-20T13:34:51.679Z,0.9
2023-01-20T13:35:55.115Z,0.9
2023-01-20T13:36:58.831Z,0.9
2023-01-20T13:38:02.521Z,0.9
2023-01-20T13:39:06.193Z,0.9
2023-01-20T13:40:09.468Z,0.9
2023-01-20T13:41:13.712Z,0.9
2023-01-20T13:42:16.836Z,0.9
2023-01-20T13:43:20.512Z,0.9
2023-01-20T13:44:23.643Z,0.8
2023-01-20T13:45:26.768Z,0.7
2023-01-20T13:46:30.904Z,0.7
2023-01-20T13:47:34.622Z,0.7
2023-01-20T13:48:37.363Z,0.7
2023-01-20T13:49:40.500Z,0.8
2023-01-20T13:50:43.886Z,0.8
2023-01-20T13:51:47.341Z,0.8
2023-01-20T13:52:50.739Z,0.9
2023-01-20T13:53:54.095Z,0.9
2023-01-20T13:54:57.575Z,0.9
2023-01-20T13:56:00.382Z,0.9
2023-01-20T13:57:04.546Z,0.9
2023-01-20T13:58:08.336Z,0.9
2023-01-20T13:59:12.347Z,0.9
2023-01-20T14:00:15.758Z,0.9
2023-01-20T14:01:19.985Z,0.8
2023-01-20T14:02:23.693Z,0.7
2023-01-20T14:03:27.553Z,0.7
2023-01-20T14:04:31.040Z,0.6
2023-01-20T14:05:34.756Z,0.6
2023-01-20T14:06:39.038Z,0.6
2023-01-20T14:07:42.195Z,0.6
2023-01-20T14:08:45.310Z,0.6
2023-01-20T14:09:48.729Z,0.6
2023-01-20T14:10:51.878Z,0.6
2023-01-20T14:11:55.619Z,0.6
2023-01-20T14:12:59.576Z,0.6
2023-01-20T14:14:03.015Z,0.6
2023-01-20T14:15:10.835Z,0.6
2023-01-20T14:16:14.855Z,0.6
2023-01-20T14:17:18.263Z,0.5
2023-01-20T14:18:21.811Z,0.5
2023-01-20T14:19:25.049Z,0.5
2023-01-20T14:20:28.446Z,0.5
2023-01-20T14:21:32.149Z,0.5
2023-01-20T14:22:35.537Z,0.5
2023-01-20T14:23:38.888Z,0.5
2023-01-20T14:24:41.878Z,0.4
2023-01-20T14:25:44.906Z,0.5